createdAt,value
2019-02-16T00:03:49.741Z,63.96
2019-02-16T00:07:56.975Z,63.59
2019-02-16T00:12:06.124Z,63.53
2019-02-16T00:16:13.148Z,63.47
2019-02-16T00:20:20.049Z,63.78
2019-02-16T00:24:26.877Z,63.59
2019-02-16T00:28:33.833Z,63.61
2019-02-16T00:32:40.758Z,63.83
2019-02-16T00:36:47.682Z,64.28
2019-02-16T00:40:54.595Z,64.42
2019-02-16T00:45:01.508Z,64.22
2019-02-16T00:49:08.516Z,63.95
2019-02-16T00:53:15.363Z,64.15
2019-02-16T00:57:22.286Z,64.35
2019-02-16T01:01:29.203Z,64.39
2019-02-16T01:05:36.106Z,64.39
2019-02-16T01:09:43.008Z,64.17
2019-02-16T01:13:50.956Z,64.23
2019-02-16T01:17:57.843Z,64.23
2019-02-16T01:22:04.727Z,63.92
2019-02-16T01:26:11.591Z,64.22
2019-02-16T01:30:18.541Z,64.45
2019-02-16T01:34:25.389Z,64.65
2019-02-16T01:38:32.257Z,64.53
2019-02-16T01:42:39.139Z,64.48
2019-02-16T01:46:46.065Z,64.72
2019-02-16T01:50:53.022Z,64.81
2019-02-16T01:54:59.852Z,64.92
2019-02-16T01:59:06.695Z,65.30
2019-02-16T02:03:13.615Z,65.43
2019-02-16T02:07:20.516Z,65.10
2019-02-16T02:11:27.987Z,65.04
2019-02-16T02:15:34.989Z,65.44
2019-02-16T02:19:41.829Z,64.89
2019-02-16T02:23:48.735Z,65.12
2019-02-16T02:27:55.639Z,65.24
2019-02-16T02:32:02.567Z,65.34
2019-02-16T02:36:09.436Z,65.38
2019-02-16T02:40:16.399Z,64.67
2019-02-16T02:44:23.207Z,65.61
2019-02-16T02:48:30.092Z,65.48
2019-02-16T02:52:36.942Z,66.10
2019-02-16T02:56:43.878Z,66.55
2019-02-16T03:00:50.741Z,66.42
2019-02-16T03:04:57.911Z,66.94
2019-02-16T03:09:05.623Z,67.03
2019-02-16T03:13:14.096Z,66.95
2019-02-16T03:17:20.908Z,66.83
2019-02-16T03:21:27.722Z,66.90
2019-02-16T03:25:34.560Z,66.80
2019-02-16T03:30:18.779Z,66.79
2019-02-16T03:34:32.489Z,67.30
2019-02-16T03:39:19.547Z,67.42
2019-02-16T03:43:26.429Z,67.60
2019-02-16T03:47:33.283Z,67.89
2019-02-16T03:51:40.170Z,67.63
2019-02-16T03:55:46.995Z,67.70
2019-02-16T03:59:53.845Z,67.65
2019-02-16T04:04:00.714Z,67.80
2019-02-16T04:08:07.557Z,67.79
2019-02-16T04:12:14.393Z,67.84
2019-02-16T04:16:21.245Z,68.09
2019-02-16T04:20:28.410Z,68.40
2019-02-16T04:24:36.227Z,68.28
2019-02-16T04:28:43.056Z,68.43
2019-02-16T04:32:49.975Z,68.56
2019-02-16T04:36:56.869Z,68.11
2019-02-16T04:41:03.658Z,67.99
2019-02-16T04:45:10.649Z,68.91
2019-02-16T04:49:17.511Z,68.35
2019-02-16T04:53:25.517Z,68.80
2019-02-16T04:57:32.344Z,68.63
2019-02-16T05:01:39.199Z,68.62
2019-02-16T05:05:45.996Z,69.09
2019-02-16T05:09:52.933Z,69.24
2019-02-16T05:13:59.818Z,69.71
2019-02-16T05:18:06.926Z,70.22
2019-02-16T05:22:13.806Z,70.38
2019-02-16T05:26:20.671Z,71.30
2019-02-16T05:30:27.551Z,71.27
2019-02-16T05:34:34.371Z,71.74
2019-02-16T05:38:41.350Z,72.11
2019-02-16T05:42:48.410Z,72.65
2019-02-16T05:46:55.837Z,72.42
2019-02-16T05:51:02.713Z,72.49
2019-02-16T05:55:09.557Z,71.80
2019-02-16T05:59:16.424Z,73.02
2019-02-16T06:03:23.368Z,73.23
2019-02-16T06:07:30.221Z,72.91
2019-02-16T06:11:37.150Z,73.63
2019-02-16T06:15:44.037Z,74.23
2019-02-16T06:19:50.921Z,74.93
2019-02-16T06:23:57.739Z,75.36
2019-02-16T06:28:04.703Z,75.38
2019-02-16T06:32:11.763Z,75.64
2019-02-16T06:36:24.030Z,75.85
2019-02-16T06:40:33.618Z,75.61
2019-02-16T06:44:40.610Z,75.85
2019-02-16T06:48:47.637Z,75.67
2019-02-16T06:52:57.768Z,75.55
2019-02-16T06:57:22.624Z,75.28
2019-02-16T07:01:29.563Z,74.88
2019-02-16T07:05:36.803Z,75.17
2019-02-16T07:09:43.863Z,76.27
2019-02-16T07:13:53.148Z,75.96
2019-02-16T07:18:25.043Z,76.06
2019-02-16T07:22:31.982Z,75.91
2019-02-16T07:26:39.162Z,75.65
2019-02-16T07:30:47.972Z,75.39
2019-02-16T07:34:54.989Z,75.37
2019-02-16T07:39:02.169Z,74.90
2019-02-16T07:43:25.629Z,74.63
2019-02-16T07:47:57.365Z,73.74
2019-02-16T07:52:15.349Z,73.34
2019-02-16T07:56:43.921Z,74.95
2019-02-16T08:01:28.041Z,71.60
2019-02-16T08:05:53.775Z,70.56
2019-02-16T08:10:15.861Z,69.50
2019-02-16T08:14:40.655Z,68.56
2019-02-16T08:19:15.321Z,67.76
2019-02-16T08:23:44.196Z,64.94
2019-02-16T08:28:25.267Z,63.74
2019-02-16T08:32:45.282Z,61.89
2019-02-16T08:37:09.880Z,59.18
2019-02-16T08:41:35.946Z,58.09
2019-02-16T08:46:00.640Z,55.95
2019-02-16T08:50:29.502Z,55.64
2019-02-16T08:54:54.324Z,54.29
2019-02-16T08:59:11.335Z,54.27
2019-02-16T09:03:49.508Z,53.77
2019-02-16T09:08:02.631Z,52.20
2019-02-16T09:12:31.986Z,51.83
2019-02-16T09:17:24.410Z,50.44
2019-02-16T09:22:07.723Z,49.53
2019-02-16T09:26:39.541Z,49.12
2019-02-16T09:31:20.616Z,48.24
2019-02-16T09:35:50.468Z,47.61
2019-02-16T09:40:22.201Z,46.99
2019-02-16T09:44:51.076Z,46.59
2019-02-16T09:49:29.051Z,47.24
2019-02-16T09:53:42.033Z,46.30
2019-02-16T09:58:12.677Z,46.96
2019-02-16T10:02:47.276Z,47.39
2019-02-16T10:07:18.944Z,48.64
2019-02-16T10:11:53.530Z,48.16
2019-02-16T10:16:14.016Z,49.04
2019-02-16T10:20:30.214Z,49.07
2019-02-16T10:24:49.161Z,50.21
2019-02-16T10:29:12.809Z,49.28
2019-02-16T10:33:31.274Z,50.07
2019-02-16T10:38:15.786Z,50.26
2019-02-16T10:42:40.695Z,48.93
2019-02-16T10:46:56.482Z,48.84
2019-02-16T10:51:18.513Z,47.47
2019-02-16T10:56:02.974Z,46.96
2019-02-16T11:00:32.277Z,46.25
2019-02-16T11:05:07.429Z,45.93
2019-02-16T11:09:24.884Z,44.97
2019-02-16T11:13:50.736Z,44.68
2019-02-16T11:18:15.696Z,45.28
2019-02-16T11:22:29.213Z,45.41
2019-02-16T11:26:46.552Z,45.23
2019-02-16T11:31:12.447Z,44.18
2019-02-16T11:35:44.331Z,44.78
2019-02-16T11:40:06.388Z,44.18
2019-02-16T11:44:35.153Z,43.58
2019-02-16T11:48:59.208Z,43.32
2019-02-16T11:53:31.001Z,42.15
2019-02-16T11:58:02.843Z,40.94
2019-02-16T12:02:26.750Z,40.50
2019-02-16T12:06:49.123Z,39.89
2019-02-16T12:11:06.224Z,39.48
2019-02-16T12:15:31.082Z,39.22
2019-02-16T12:20:15.314Z,37.29
2019-02-16T12:24:27.865Z,35.70
2019-02-16T12:28:42.184Z,35.53
2019-02-16T12:33:17.351Z,34.71
2019-02-16T12:37:30.275Z,33.72
2019-02-16T12:41:44.208Z,33.64
2019-02-16T12:46:13.216Z,33.17
2019-02-16T12:50:39.349Z,33.08
2019-02-16T12:55:00.680Z,33.11
2019-02-16T12:59:22.358Z,32.21
2019-02-16T13:03:46.871Z,32.32
2019-02-16T13:08:12.604Z,31.38
2019-02-16T13:12:57.045Z,30.70
2019-02-16T13:17:31.805Z,32.09
2019-02-16T13:22:04.168Z,29.62
2019-02-16T13:26:38.844Z,30.32
2019-02-16T13:30:59.964Z,30.32
2019-02-16T13:35:44.184Z,30.04
2019-02-16T13:40:15.379Z,30.79
2019-02-16T13:44:39.846Z,31.35
2019-02-16T13:48:52.625Z,32.10
2019-02-16T13:53:24.382Z,34.31
2019-02-16T13:57:40.672Z,33.57
2019-02-16T14:02:04.982Z,35.25
2019-02-16T14:06:34.035Z,35.77
2019-02-16T14:10:58.787Z,35.98
2019-02-16T14:15:21.629Z,37.20
2019-02-16T14:19:28.507Z,37.52
2019-02-16T14:23:35.378Z,38.03
2019-02-16T14:27:42.264Z,38.37
2019-02-16T14:31:49.113Z,38.66
2019-02-16T14:35:56.203Z,39.01
2019-02-16T14:40:03.238Z,39.65
2019-02-16T14:44:16.529Z,39.67
2019-02-16T14:48:23.738Z,40.01
2019-02-16T14:52:30.623Z,40.21
2019-02-16T14:56:37.604Z,40.38
2019-02-16T15:00:44.813Z,40.33
2019-02-16T15:04:52.701Z,40.59
2019-02-16T15:08:59.605Z,41.03
2019-02-16T15:13:06.682Z,41.34
2019-02-16T15:17:13.611Z,41.39
2019-02-16T15:21:20.605Z,41.84
2019-02-16T15:25:27.790Z,42.15
2019-02-16T15:29:34.729Z,42.53
2019-02-16T15:33:41.750Z,42.83
2019-02-16T15:37:48.776Z,43.14
2019-02-16T15:41:55.809Z,43.42
2019-02-16T15:46:03.076Z,43.61
2019-02-16T15:50:11.942Z,43.89
2019-02-16T15:54:18.893Z,44.20
2019-02-16T15:58:26.547Z,44.17
2019-02-16T16:02:33.905Z,44.54
2019-02-16T16:06:54.780Z,44.60
2019-02-16T16:11:08.798Z,44.95
2019-02-16T16:15:41.827Z,45.13
2019-02-16T16:20:16.951Z,45.51
2019-02-16T16:24:32.517Z,45.71
2019-02-16T16:28:46.706Z,46.16
2019-02-16T16:33:23.634Z,46.36
2019-02-16T16:37:49.510Z,46.65
2019-02-16T16:42:14.301Z,46.76
2019-02-16T16:46:50.170Z,47.29
2019-02-16T16:51:25.070Z,47.95
2019-02-16T16:55:53.907Z,48.38
2019-02-16T17:00:22.544Z,49.03
2019-02-16T17:04:44.683Z,49.43
2019-02-16T17:09:09.227Z,49.62
2019-02-16T17:13:37.903Z,50.49
2019-02-16T17:17:55.359Z,51.21
2019-02-16T17:22:10.026Z,51.54
2019-02-16T17:26:44.898Z,52.06
2019-02-16T17:31:09.386Z,52.34
2019-02-16T17:35:33.981Z,52.86
2019-02-16T17:39:50.884Z,53.28
2019-02-16T17:44:22.767Z,53.70
2019-02-16T17:49:03.843Z,53.97
2019-02-16T17:53:29.011Z,54.16
2019-02-16T17:57:54.691Z,54.98
2019-02-16T18:02:22.963Z,54.59
2019-02-16T18:06:40.111Z,54.92
2019-02-16T18:10:58.595Z,54.88
2019-02-16T18:15:30.320Z,55.44
2019-02-16T18:19:43.101Z,55.95
2019-02-16T18:24:11.439Z,56.05
2019-02-16T18:29:00.683Z,56.42
2019-02-16T18:33:30.989Z,56.82
2019-02-16T18:37:55.826Z,56.63
2019-02-16T18:42:15.887Z,57.19
2019-02-16T18:46:45.055Z,57.93
2019-02-16T18:51:13.826Z,57.29
2019-02-16T18:55:42.913Z,57.55
2019-02-16T19:00:09.308Z,58.47
2019-02-16T19:04:24.304Z,59.03
2019-02-16T19:09:08.226Z,58.79
2019-02-16T19:13:45.234Z,59.02
2019-02-16T19:18:23.100Z,59.50
2019-02-16T19:22:41.508Z,59.79
2019-02-16T19:27:19.855Z,59.81
2019-02-16T19:31:46.734Z,59.67
2019-02-16T19:36:03.911Z,61.08
2019-02-16T19:40:29.472Z,60.97
2019-02-16T19:44:54.050Z,60.91
2019-02-16T19:49:18.984Z,61.37
2019-02-16T19:54:03.126Z,61.00
2019-02-16T19:58:22.881Z,62.06
2019-02-16T20:03:06.297Z,62.27
2019-02-16T20:07:30.877Z,62.08
2019-02-16T20:16:29.853Z,62.20
2019-02-16T20:21:00.065Z,62.38
2019-02-16T20:25:22.096Z,63.22
2019-02-16T20:29:45.272Z,63.81
2019-02-16T20:34:14.585Z,64.20
2019-02-16T20:38:44.307Z,64.29
2019-02-16T20:42:57.891Z,64.26
2019-02-16T20:47:29.935Z,64.54
2019-02-16T20:52:06.640Z,63.89
2019-02-16T20:56:39.453Z,64.45
2019-02-16T21:00:58.447Z,64.78
2019-02-16T21:05:33.699Z,64.35
2019-02-16T21:10:02.883Z,65.30
2019-02-16T21:14:32.339Z,66.07
2019-02-16T21:18:56.939Z,65.59
2019-02-16T21:23:23.027Z,67.03
2019-02-16T21:28:03.673Z,64.97
2019-02-16T21:32:35.883Z,65.52
2019-02-16T21:37:09.072Z,66.04
2019-02-16T21:41:38.786Z,66.49
2019-02-16T21:46:03.171Z,67.02
2019-02-16T21:50:31.886Z,67.39
2019-02-16T21:59:45.461Z,67.26
2019-02-16T22:04:08.396Z,67.51
2019-02-16T22:08:53.369Z,67.34
2019-02-16T22:13:26.002Z,67.37
2019-02-16T22:17:28.682Z,67.66
2019-02-16T22:21:35.626Z,68.00
2019-02-16T22:25:42.647Z,67.68
2019-02-16T22:29:49.634Z,68.17
2019-02-16T22:33:57.206Z,68.40
2019-02-16T22:38:04.443Z,68.70
2019-02-16T22:42:11.745Z,68.85
2019-02-16T22:46:18.775Z,68.97
2019-02-16T22:50:29.073Z,69.23
2019-02-16T22:54:37.082Z,68.56
2019-02-16T22:58:43.989Z,68.68
2019-02-16T23:02:51.192Z,69.42
2019-02-16T23:06:58.502Z,69.62
2019-02-16T23:11:09.511Z,69.97
2019-02-16T23:15:16.594Z,69.79
2019-02-16T23:19:23.620Z,69.95
2019-02-16T23:23:30.608Z,70.30
2019-02-16T23:27:37.525Z,70.23
2019-02-16T23:31:44.461Z,71.09
2019-02-16T23:35:52.253Z,71.21
2019-02-16T23:39:59.164Z,70.85
2019-02-16T23:44:06.009Z,70.92
2019-02-16T23:48:12.940Z,70.96
2019-02-16T23:52:19.806Z,71.42
2019-02-16T23:56:26.607Z,71.70
